Time;durP1;ratioP1;P1;durP2;ratioP2;P2;SDS_P1;SDS_P2;PMS_P1;PMS_P2;Temp;Humidity;BMP_temperature;BMP_pressure;BME280_temperature;BME280_humidity;BME280_pressure;Samples;Min_cycle;Max_cycle;Signal;HPM_P1;HPM_P2
2020/12/20 00:02:46;;;;;;;;;;;;;;;;;;;;;
2020/12/20 00:06:28;;;;;;;;;;;;;;;;;;;;;
2020/12/20 00:09:37;;;;;;;;;;;;;;;;;;;;;
2020/12/20 00:15:23;;;;;;;0.73;0.22;;;10.40;88.70;;;;;;4114202;27;20126;-89
2020/12/20 00:28:54;;;;;;;0.05;0.05;;;10.40;88.70;;;;;;4131935;27;20059;-90
2020/12/20 00:31:50;;;;;;;;;;;;;;;;;;;;;
2020/12/20 00:48:42;;;;;;;0.00;0.00;;;10.50;88.90;;;;;;4126563;35;20055;-89
2020/12/20 00:51:29;;;;;;;1.75;0.40;;;10.50;88.80;;;;;;4132225;27;20066;-89
2020/12/20 00:54:20;;;;;;;0.50;0.30;;;10.50;88.80;;;;;;4108557;35;20054;-89
2020/12/20 00:57:13;;;;;;;0.55;0.28;;;10.50;88.80;;;;;;4112059;35;20074;-89
2020/12/20 00:59:48;;;;;;;0.10;0.08;;;10.40;88.80;;;;;;4108883;35;20085;-89
2020/12/20 01:02:32;;;;;;;1.55;0.35;;;10.40;89.00;;;;;;4128696;27;20071;-88
2020/12/20 01:04:59;;;;;;;0.38;0.10;;;10.40;89.10;;;;;;4113004;27;20047;-90
2020/12/20 01:07:25;;;;;;;0.00;0.00;;;10.40;89.20;;;;;;4104113;35;20414;-88
2020/12/20 01:10:03;;;;;;;0.00;0.00;;;10.40;89.20;;;;;;4088470;35;20071;-88
2020/12/20 01:12:52;;;;;;;0.25;0.05;;;10.30;89.20;;;;;;4099965;35;20084;-89
2020/12/20 01:15:18;;;;;;;0.00;0.00;;;10.30;89.30;;;;;;4087096;28;20071;-89
2020/12/20 01:17:45;;;;;;;0.25;0.03;;;10.30;89.30;;;;;;4079749;27;20056;-91
2020/12/20 01:20:20;;;;;;;0.08;0.08;;;10.30;89.30;;;;;;4077559;27;20095;-89
2020/12/20 01:23:17;;;;;;;;;;;;;;;;;;;;;
2020/12/20 01:26:02;;;;;;;0.00;0.00;;;10.30;89.40;;;;;;4064568;35;20073;-90
2020/12/20 01:28:37;;;;;;;3.17;0.10;;;10.20;89.40;;;;;;4053875;35;20084;-88
2020/12/20 01:31:05;;;;;;;0.00;0.00;;;10.20;89.60;;;;;;4042855;28;20481;-89
2020/12/20 01:34:02;;;;;;;2.08;0.63;;;10.20;89.70;;;;;;4077770;27;20560;-89
2020/12/20 01:36:32;;;;;;;0.00;0.00;;;10.20;89.70;;;;;;4057058;28;20068;-90
2020/12/20 01:38:59;;;;;;;0.17;0.10;;;10.10;89.70;;;;;;4053336;27;20053;-90
2020/12/20 01:41:31;;;;;;;0.00;0.00;;;10.10;89.80;;;;;;4050046;35;20060;-90
2020/12/20 01:43:57;;;;;;;0.00;0.00;;;10.10;89.80;;;;;;4044639;35;20555;-89
2020/12/20 01:46:51;;;;;;;0.43;0.10;;;10.10;89.80;;;;;;4098780;27;20176;-89
2020/12/20 01:49:20;;;;;;;0.85;0.10;;;10.10;89.80;;;;;;4083872;28;20076;-91
2020/12/20 01:51:52;;;;;;;8.40;0.22;;;10.00;89.90;;;;;;4083384;27;20049;-90
2020/12/20 01:56:59;;;;;;;4.00;0.20;;;10.00;89.90;;;;;;4136993;27;20186;-89
2020/12/20 01:59:59;;;;;;;0.10;0.10;;;10.00;89.90;;;;;;4122909;27;20493;-89
2020/12/20 02:02:48;;;;;;;0.10;0.10;;;10.00;89.90;;;;;;4129905;34;20067;-89
2020/12/20 02:05:47;;;;;;;2.00;0.20;;;10.00;89.90;;;;;;4076191;35;20040;-89
2020/12/20 02:14:41;;;;;;;0.00;0.00;;;10.00;89.80;;;;;;4047047;35;20069;-88
2020/12/20 02:17:14;;;;;;;0.10;0.10;;;10.00;89.90;;;;;;4041822;28;20072;-90
2020/12/20 02:20:24;;;;;;;0.00;0.00;;;10.00;89.90;;;;;;4074091;35;20092;-90
2020/12/20 02:23:10;;;;;;;0.00;0.00;;;9.90;89.80;;;;;;4093447;34;20047;-89
2020/12/20 02:25:44;;;;;;;0.00;0.00;;;9.90;89.90;;;;;;4095638;34;20075;-90
2020/12/20 02:28:58;;;;;;;1.98;0.88;;;9.90;90.00;;;;;;4111132;27;20466;-89
2020/12/20 02:31:36;;;;;;;;;;;;;;;;;;;;;
2020/12/20 02:34:12;;;;;;;0.10;0.00;;;9.80;90.00;;;;;;4121393;34;20105;-90
2020/12/20 02:36:38;;;;;;;0.15;0.00;;;9.80;90.00;;;;;;4129395;34;20074;-87
2020/12/20 02:39:18;;;;;;;0.20;0.20;;;9.70;90.00;;;;;;4150364;27;20085;-90
2020/12/20 02:42:06;;;;;;;0.00;0.00;;;9.80;90.00;;;;;;4100006;27;20078;-88
2020/12/20 02:44:39;;;;;;;0.00;0.00;;;9.80;90.00;;;;;;4098807;35;20442;-89
2020/12/20 02:50:21;;;;;;;0.00;0.00;;;9.80;90.00;;;;;;4079862;35;20080;-90
2020/12/20 02:56:08;;;;;;;0.00;0.00;;;9.80;90.00;;;;;;4124560;27;20085;-87
2020/12/20 02:58:38;;;;;;;0.05;0.00;;;9.80;90.00;;;;;;4128509;34;20069;-89
2020/12/20 03:06:17;;;;;;;4.80;0.15;;;9.70;90.00;;;;;;4105067;34;20099;-89
2020/12/20 03:09:05;;;;;;;;;;;;;;;;;;;;;
2020/12/20 03:11:45;;;;;;;;;;;;;;;;;;;;;
2020/12/20 03:17:08;;;;;;;3.65;0.43;;;9.60;90.00;;;;;;4139593;27;20447;-90
2020/12/20 03:19:56;;;;;;;;;;;;;;;;;;;;;
2020/12/20 03:25:54;;;;;;;0.47;0.30;;;9.70;90.00;;;;;;4114072;27;20107;-91
2020/12/20 03:32:11;;;;;;;0.10;0.10;;;9.70;90.00;;;;;;4135022;27;20075;-90
2020/12/20 03:35:04;;;;;;;1.00;0.13;;;9.60;89.90;;;;;;4094732;35;20143;-89
2020/12/20 03:50:27;;;;;;;;;;;;;;;;;;;;;
2020/12/20 03:56:00;;;;;;;8.75;0.32;;;9.60;89.90;;;;;;4111053;27;20043;-90
2020/12/20 03:58:36;;;;;;;4.30;0.30;;;9.60;89.90;;;;;;4116802;27;20051;-90
2020/12/20 04:04:32;;;;;;;0.00;0.00;;;9.60;90.00;;;;;;4035851;35;20088;-91
2020/12/20 04:07:18;;;;;;;8.68;0.30;;;9.50;90.00;;;;;;4006940;28;20062;-90
2020/12/20 04:10:00;;;;;;;8.05;0.20;;;9.50;90.00;;;;;;4124542;28;20045;-93
2020/12/20 04:12:30;;;;;;;0.10;0.00;;;9.50;90.00;;;;;;4067290;28;20088;-91
2020/12/20 04:15:42;;;;;;;0.00;0.00;;;9.50;90.00;;;;;;4118589;28;20068;-90
2020/12/20 04:18:39;;;;;;;0.00;0.00;;;9.50;90.00;;;;;;4103180;27;20099;-89
2020/12/20 04:21:31;;;;;;;0.20;0.08;;;9.50;90.10;;;;;;4076371;35;20080;-91
2020/12/20 04:24:11;;;;;;;0.00;0.00;;;9.40;90.00;;;;;;4075976;35;20055;-91
2020/12/20 04:27:04;;;;;;;0.00;0.00;;;9.40;90.10;;;;;;4067217;27;20071;-90
2020/12/20 04:29:34;;;;;;;0.55;0.22;;;9.40;90.10;;;;;;4057452;27;20061;-90
2020/12/20 04:43:32;;;;;;;0.00;0.00;;;9.40;90.00;;;;;;4138648;34;20067;-87
2020/12/20 04:46:00;;;;;;;0.00;0.00;;;9.40;90.00;;;;;;4139338;27;20078;-91
2020/12/20 04:48:51;;;;;;;0.10;0.00;;;9.40;90.00;;;;;;4114449;27;20058;-90
2020/12/20 04:51:49;;;;;;;0.38;0.20;;;9.40;90.00;;;;;;4125517;34;20364;-87
2020/12/20 04:54:17;;;;;;;0.00;0.00;;;9.30;90.10;;;;;;4133806;34;20085;-87
2020/12/20 04:57:11;;;;;;;0.00;0.00;;;9.30;90.10;;;;;;4173613;27;20063;-87
2020/12/20 04:59:42;;;;;;;0.00;0.00;;;9.30;90.10;;;;;;4141205;27;20085;-87
2020/12/20 05:02:35;;;;;;;0.08;0.00;;;9.30;90.10;;;;;;4126096;27;20095;-88
2020/12/20 05:05:12;;;;;;;0.47;0.10;;;9.30;90.10;;;;;;4068594;35;20072;-89
2020/12/20 05:07:42;;;;;;;0.17;0.03;;;9.30;90.10;;;;;;4082848;34;20082;-87
2020/12/20 05:10:13;;;;;;;2.03;0.32;;;9.30;90.10;;;;;;4122274;34;20406;-88
2020/12/20 05:12:59;;;;;;;0.00;0.00;;;9.30;90.10;;;;;;4128324;27;20098;-89
2020/12/20 05:15:35;;;;;;;0.00;0.00;;;9.30;90.10;;;;;;4115555;27;20075;-89
2020/12/20 05:18:40;;;;;;;0.00;0.00;;;9.30;90.10;;;;;;4179070;27;20078;-87
2020/12/20 05:21:37;;;;;;;1.35;0.15;;;9.30;90.20;;;;;;4125673;27;20085;-87
2020/12/20 05:24:29;;;;;;;0.00;0.00;;;9.20;90.20;;;;;;4115767;34;20462;-87
2020/12/20 05:29:28;;;;;;;0.30;0.10;;;9.20;90.20;;;;;;4139234;34;20077;-88
2020/12/20 05:35:12;;;;;;;0.00;0.00;;;9.10;90.20;;;;;;4137029;34;20094;31
2020/12/20 05:37:53;;;;;;;1.02;0.52;;;9.10;90.20;;;;;;4077437;27;20045;-89
2020/12/20 05:40:26;;;;;;;0.00;0.00;;;9.10;90.20;;;;;;4111284;27;20081;-87
2020/12/20 05:43:14;;;;;;;0.47;0.20;;;9.10;90.30;;;;;;4139621;27;20042;-88
2020/12/20 05:48:42;;;;;;;0.00;0.00;;;9.10;90.30;;;;;;4114520;34;20035;-88
2020/12/20 05:51:09;;;;;;;0.00;0.00;;;9.10;90.20;;;;;;4099416;35;20059;-88
2020/12/20 05:54:12;;;;;;;0.00;0.00;;;9.20;90.20;;;;;;4117863;27;20067;-88
2020/12/20 05:56:38;;;;;;;0.00;0.00;;;9.20;90.10;;;;;;4114644;27;20162;-88
2020/12/20 05:59:23;;;;;;;0.00;0.00;;;9.20;90.10;;;;;;4125119;34;20081;-89
2020/12/20 06:01:49;;;;;;;0.00;0.00;;;9.20;90.00;;;;;;4137691;27;20094;-87
2020/12/20 06:07:11;;;;;;;0.00;0.00;;;9.30;90.00;;;;;;4118311;27;20078;-86
2020/12/20 06:12:35;;;;;;;2.72;0.70;;;9.30;89.90;;;;;;4133774;27;20096;-89
2020/12/20 06:15:54;;;;;;;0.00;0.00;;;9.30;89.70;;;;;;4146360;27;20066;-88
2020/12/20 06:19:20;;;;;;;0.00;0.00;;;9.40;89.70;;;;;;4154611;27;20077;-88
2020/12/20 06:28:26;;;;;;;0.00;0.00;;;9.40;89.30;;;;;;4132568;27;20067;-89
2020/12/20 06:33:53;;;;;;;0.00;0.00;;;9.40;89.40;;;;;;4126261;34;20523;-87
2020/12/20 06:36:42;;;;;;;0.20;0.20;;;9.40;89.50;;;;;;4131803;27;20478;-89
2020/12/20 06:45:16;;;;;;;0.00;0.00;;;9.40;89.60;;;;;;4167363;27;20063;-87
2020/12/20 06:48:24;;;;;;;0.00;0.00;;;9.40;89.70;;;;;;4127565;27;20047;-88
2020/12/20 06:51:00;;;;;;;0.00;0.00;;;9.30;89.80;;;;;;4125691;27;20097;-87
2020/12/20 06:53:47;;;;;;;0.00;0.00;;;9.30;89.90;;;;;;4136303;27;20110;-87
2020/12/20 06:56:42;;;;;;;0.38;0.22;;;9.30;90.00;;;;;;3655663;27;20841060;-90
2020/12/20 06:59:36;;;;;;;0.00;0.00;;;9.30;90.00;;;;;;4127836;34;20152;31
2020/12/20 07:02:02;;;;;;;0.00;0.00;;;9.20;90.00;;;;;;4115808;27;20116;-87
2020/12/20 07:05:03;;;;;;;0.00;0.00;;;9.20;90.30;;;;;;4116536;27;20054;-88
2020/12/20 07:07:32;;;;;;;0.00;0.00;;;9.20;90.00;;;;;;4123404;27;20059;-88
2020/12/20 07:10:01;;;;;;;0.00;0.00;;;9.20;90.00;;;;;;4141384;27;20082;-87
2020/12/20 07:12:32;;;;;;;0.00;0.00;;;9.20;90.10;;;;;;4137609;34;20082;-88
2020/12/20 07:15:04;;;;;;;0.00;0.00;;;9.20;90.10;;;;;;4138020;27;20081;-88
2020/12/20 07:17:36;;;;;;;0.00;0.00;;;9.10;90.20;;;;;;4119053;27;20162;-87
2020/12/20 07:20:18;;;;;;;0.90;0.13;;;9.00;90.20;;;;;;4106878;34;20087;-89
2020/12/20 07:22:44;;;;;;;0.00;0.00;;;9.00;90.30;;;;;;4086316;34;20072;-88
2020/12/20 07:25:11;;;;;;;0.20;0.10;;;9.00;90.40;;;;;;4100694;27;20042;-87
2020/12/20 07:27:37;;;;;;;0.10;0.00;;;8.90;90.40;;;;;;4115533;34;20071;-88
2020/12/20 07:32:44;;;;;;;7.65;0.20;;;8.90;90.40;;;;;;4140330;27;20035;-88
2020/12/20 07:35:14;;;;;;;0.95;0.10;;;8.90;90.40;;;;;;4113346;34;20509;-88
2020/12/20 07:37:53;;;;;;;0.85;0.00;;;8.90;90.40;;;;;;4124715;27;20032;-88
2020/12/20 07:40:24;;;;;;;0.60;0.00;;;8.90;90.40;;;;;;4107098;35;20036;-89
2020/12/20 07:43:29;;;;;;;3.63;0.32;;;8.90;90.40;;;;;;4124098;34;20032;-87
2020/12/20 07:46:08;;;;;;;0.10;0.10;;;8.90;90.40;;;;;;4144947;27;20046;-87
2020/12/20 07:48:34;;;;;;;0.43;0.00;;;8.90;90.40;;;;;;4137707;34;20433;-88
2020/12/20 07:51:17;;;;;;;0.32;0.05;;;8.80;90.40;;;;;;4130581;27;20063;-88
2020/12/20 07:54:05;;;;;;;0.20;0.13;;;8.80;90.40;;;;;;4098063;34;20079;-88
2020/12/20 07:56:42;;;;;;;0.03;0.03;;;8.80;90.40;;;;;;4090091;35;20506;-87
2020/12/20 07:59:37;;;;;;;0.68;0.08;;;8.70;90.40;;;;;;4114763;27;20051;-85
2020/12/20 08:05:14;;;;;;;0.00;0.00;;;8.70;90.40;;;;;;4057170;35;20080;-87
2020/12/20 08:07:40;;;;;;;0.00;0.00;;;8.70;90.40;;;;;;4079003;27;20080;-89
2020/12/20 08:10:14;;;;;;;5.05;0.70;;;8.70;90.40;;;;;;4094163;34;20403;-88
2020/12/20 08:12:54;;;;;;;0.05;0.00;;;8.70;90.40;;;;;;4116676;34;20093;-88
2020/12/20 08:21:17;;;;;;;0.00;0.00;;;8.70;90.30;;;;;;4130887;27;20121;-89
2020/12/20 08:24:10;;;;;;;2.38;0.40;;;8.70;90.30;;;;;;4120851;34;20089;-88
2020/12/20 08:26:42;;;;;;;0.20;0.10;;;8.80;90.30;;;;;;4112834;27;20120;-88
2020/12/20 08:29:13;;;;;;;0.77;0.17;;;8.70;90.20;;;;;;4107546;27;20087;-88
2020/12/20 08:31:40;;;;;;;0.85;0.10;;;8.70;90.30;;;;;;4094343;28;20083;-88
2020/12/20 08:34:23;;;;;;;0.55;0.45;;;8.70;90.20;;;;;;4086460;27;20102;-89
2020/12/20 08:36:58;;;;;;;0.00;0.00;;;8.70;90.30;;;;;;4104077;34;20087;-88
2020/12/20 08:39:25;;;;;;;2.95;0.20;;;8.70;90.30;;;;;;4088890;27;20423;-88
2020/12/20 08:42:22;;;;;;;4.85;0.65;;;8.70;90.30;;;;;;4108405;27;20154;-89
2020/12/20 08:44:52;;;;;;;1.80;0.10;;;8.80;90.20;;;;;;4135457;27;20055;-88
2020/12/20 08:47:19;;;;;;;0.00;0.00;;;8.80;90.20;;;;;;4128785;27;20051;-86
2020/12/20 08:52:45;;;;;;;1.45;0.20;;;8.80;90.10;;;;;;4120588;34;20089;-88
2020/12/20 08:55:12;;;;;;;0.00;0.00;;;8.90;90.10;;;;;;4120575;27;20077;-87
2020/12/20 08:57:38;;;;;;;0.05;0.05;;;8.90;90.10;;;;;;4139773;27;20078;-88
2020/12/20 09:00:13;;;;;;;0.00;0.00;;;8.90;90.00;;;;;;4105211;27;20067;-88
2020/12/20 09:02:39;;;;;;;0.10;0.10;;;8.90;90.00;;;;;;4103983;35;20502;-88
2020/12/20 09:05:09;;;;;;;4.90;0.20;;;9.00;90.00;;;;;;4106938;35;20399;-87
2020/12/20 09:07:37;;;;;;;1.20;0.22;;;9.00;90.30;;;;;;4118144;35;20090;-87
2020/12/20 09:10:10;;;;;;;1.10;0.20;;;9.00;89.80;;;;;;4117232;34;20071;-87
2020/12/20 09:12:38;;;;;;;0.08;0.00;;;9.10;90.20;;;;;;4121859;27;20074;-89
2020/12/20 09:15:09;;;;;;;0.52;0.10;;;9.10;89.80;;;;;;4116761;27;20102;-88
2020/12/20 09:17:39;;;;;;;;;;;9.10;89.70;;;;;;4107630;35;20035;-87
2020/12/20 09:20:07;;;;;;;0.10;0.10;;;9.10;89.60;;;;;;4108044;35;20010;-86
2020/12/20 09:22:43;;;;;;;0.03;0.00;;;9.20;89.50;;;;;;4125677;27;20075;-87
2020/12/20 09:25:21;;;;;;;4.20;0.10;;;9.20;89.40;;;;;;4120502;34;20043;-88
2020/12/20 09:27:55;;;;;;;0.00;0.00;;;9.20;89.20;;;;;;4110905;27;20172;-87
2020/12/20 09:30:31;;;;;;;0.08;0.05;;;9.30;89.10;;;;;;4110000;27;20486;-88
2020/12/20 09:32:58;;;;;;;0.00;0.00;;;9.40;89.00;;;;;;4122639;27;20090;-87
2020/12/20 09:35:37;;;;;;;2.03;0.50;;;9.40;88.90;;;;;;4120520;35;20086;-87
2020/12/20 09:38:04;;;;;;;0.00;0.00;;;9.50;88.90;;;;;;4104409;35;20160;-88
2020/12/20 09:40:31;;;;;;;0.10;0.00;;;9.50;88.70;;;;;;4127452;34;20086;-87
2020/12/20 09:42:57;;;;;;;0.10;0.00;;;9.60;88.70;;;;;;4100311;27;20287;-87
2020/12/20 09:45:26;;;;;;;0.00;0.00;;;9.60;88.50;;;;;;4130923;27;20083;-88
2020/12/20 09:47:53;;;;;;;0.00;0.00;;;9.70;88.40;;;;;;4140483;27;20148;-88
2020/12/20 09:50:22;;;;;;;0.00;0.00;;;9.80;88.20;;;;;;4105093;35;20079;-87
2020/12/20 09:52:48;;;;;;;0.00;0.00;;;9.90;88.10;;;;;;4094649;35;20085;-89
2020/12/20 09:55:29;;;;;;;0.00;0.00;;;9.90;87.90;;;;;;4105265;35;20071;-89
2020/12/20 09:57:56;;;;;;;;;;;10.00;87.80;;;;;;4117455;34;20378;-87
2020/12/20 10:00:22;;;;;;;0.00;0.00;;;10.00;87.60;;;;;;4119071;27;21004;-88
2020/12/20 10:02:49;;;;;;;0.00;0.00;;;10.10;87.40;;;;;;4116352;35;20083;-87
2020/12/20 10:05:24;;;;;;;0.85;0.35;;;10.20;87.20;;;;;;4123569;27;20067;-88
2020/12/20 10:07:50;;;;;;;0.00;0.00;;;10.30;87.10;;;;;;4109612;27;20071;-88
2020/12/20 10:10:26;;;;;;;1.20;0.00;;;10.40;86.90;;;;;;4116402;35;20517;-87
2020/12/20 10:12:52;;;;;;;0.10;0.00;;;10.50;86.70;;;;;;4116793;35;20430;-88
2020/12/20 10:15:28;;;;;;;0.10;0.00;;;10.60;86.50;;;;;;4115955;27;20474;-87
2020/12/20 10:18:01;;;;;;;0.10;0.00;;;10.70;86.60;;;;;;4113628;35;20299;-88
2020/12/20 10:20:28;;;;;;;0.35;0.25;;;10.80;85.90;;;;;;4119239;35;20250;-87
2020/12/20 10:22:55;;;;;;;0.10;0.10;;;11.10;85.70;;;;;;4118357;35;20083;-88
2020/12/20 10:25:24;;;;;;;0.00;0.00;;;11.30;85.20;;;;;;4119143;35;20075;-87
2020/12/20 10:27:54;;;;;;;0.00;0.00;;;11.70;84.40;;;;;;4108490;27;20082;-87
2020/12/20 10:30:29;;;;;;;0.00;0.00;;;11.90;83.70;;;;;;4129114;27;20082;-86
2020/12/20 10:32:56;;;;;;;2.10;0.17;;;12.10;83.30;;;;;;4120059;27;20075;-87
2020/12/20 10:35:31;;;;;;;0.00;0.00;;;12.20;83.10;;;;;;4117162;35;20474;-88
2020/12/20 10:37:58;;;;;;;0.00;0.00;;;12.30;83.10;;;;;;4120521;27;20106;-88
2020/12/20 10:40:27;;;;;;;0.17;0.00;;;12.30;83.00;;;;;;4105343;35;20079;-89
2020/12/20 10:42:54;;;;;;;0.10;0.10;;;12.20;83.10;;;;;;4116634;35;20075;-88
2020/12/20 10:45:20;;;;;;;0.20;0.20;;;12.20;83.40;;;;;;4117664;27;20506;-88
2020/12/20 10:47:47;;;;;;;3.22;1.25;;;12.20;83.60;;;;;;4118643;35;20086;-87
2020/12/20 10:50:28;;;;;;;0.00;0.00;;;12.20;83.80;;;;;;4095141;27;20083;-89
2020/12/20 10:52:56;;;;;;;0.00;0.00;;;12.40;83.70;;;;;;4118042;34;20080;-88
2020/12/20 10:55:23;;;;;;;0.00;0.00;;;12.50;83.40;;;;;;4109650;27;20071;-89
2020/12/20 10:57:50;;;;;;;0.00;0.00;;;12.50;83.20;;;;;;4107595;35;20090;-88
2020/12/20 11:00:26;;;;;;;0.00;0.00;;;12.60;83.10;;;;;;4118992;27;20059;-87
2020/12/20 11:02:52;;;;;;;0.00;0.00;;;12.60;83.20;;;;;;4106525;35;20067;-88
2020/12/20 11:05:28;;;;;;;0.40;0.20;;;12.60;83.30;;;;;;4107421;27;20082;-88
2020/12/20 11:07:54;;;;;;;0.30;0.20;;;12.60;83.30;;;;;;4118710;35;20035;-88
2020/12/20 11:10:25;;;;;;;0.10;0.03;;;12.70;83.10;;;;;;4109042;27;20047;-87
2020/12/20 11:12:51;;;;;;;0.10;0.10;;;12.80;82.80;;;;;;4113458;27;20399;-89
2020/12/20 11:15:23;;;;;;;0.00;0.00;;;13.10;82.40;;;;;;4108385;27;20181;-87
2020/12/20 11:17:58;;;;;;;0.00;0.00;;;13.30;81.70;;;;;;4120012;27;20081;-89
2020/12/20 11:20:25;;;;;;;0.85;0.60;;;13.40;81.20;;;;;;4129048;27;20082;-89
2020/12/20 11:22:51;;;;;;;0.10;0.10;;;13.60;81.00;;;;;;4123378;27;20089;-88
2020/12/20 11:25:18;;;;;;;0.00;0.00;;;13.70;80.60;;;;;;4130432;27;20082;-89
2020/12/20 11:27:45;;;;;;;0.00;0.00;;;13.90;80.50;;;;;;4112734;27;20227;-89
2020/12/20 11:30:14;;;;;;;0.20;0.20;;;14.00;80.20;;;;;;4102760;27;20369;-88
2020/12/20 11:32:44;;;;;;;0.22;0.20;;;14.20;80.00;;;;;;4086156;35;20075;-89
2020/12/20 11:35:10;;;;;;;1.65;0.43;;;14.20;79.60;;;;;;4106848;35;20447;-88
2020/12/20 11:37:37;;;;;;;0.22;0.22;;;14.30;79.60;;;;;;4100459;27;20114;-87
2020/12/20 11:40:03;;;;;;;0.00;0.00;;;14.30;79.80;;;;;;4099639;35;20098;-89
2020/12/20 11:42:29;;;;;;;0.20;0.20;;;14.20;80.00;;;;;;4110346;27;20079;-89
2020/12/20 11:44:56;;;;;;;0.10;0.00;;;14.20;80.30;;;;;;4117596;35;20524;-90
2020/12/20 11:47:22;;;;;;;0.05;0.00;;;14.30;80.40;;;;;;4120125;27;20071;-90
2020/12/20 11:49:51;;;;;;;0.00;0.00;;;14.40;80.10;;;;;;4121712;27;20087;-88
2020/12/20 11:52:17;;;;;;;0.00;0.00;;;14.60;79.90;;;;;;4119530;27;20153;-88
2020/12/20 11:54:43;;;;;;;0.00;0.00;;;14.70;79.60;;;;;;4117392;35;20431;-89
2020/12/20 11:57:10;;;;;;;0.00;0.00;;;14.70;79.50;;;;;;4116514;35;20386;-89
2020/12/20 11:59:45;;;;;;;0.00;0.00;;;14.70;79.60;;;;;;4113228;27;20125;-90
2020/12/20 12:02:12;;;;;;;0.10;0.05;;;14.60;79.90;;;;;;4109422;27;20051;-90
2020/12/20 12:04:58;;;;;;;0.00;0.00;;;14.60;80.00;;;;;;4108426;27;20051;-88
2020/12/20 12:07:31;;;;;;;0.00;0.00;;;14.60;80.20;;;;;;4108953;35;20078;-87
2020/12/20 12:10:03;;;;;;;0.35;0.03;;;14.60;80.20;;;;;;4107947;35;20086;-87
2020/12/20 12:12:55;;;;;;;3.40;0.10;;;14.60;80.40;;;;;;4131139;27;20378;-90
2020/12/20 12:15:22;;;;;;;0.00;0.00;;;14.50;80.50;;;;;;4120106;27;20090;-88
2020/12/20 12:17:51;;;;;;;0.00;0.00;;;14.50;80.60;;;;;;4120732;34;20178;-89
2020/12/20 12:20:26;;;;;;;0.10;0.00;;;14.50;80.70;;;;;;4127055;34;20086;-88
2020/12/20 12:22:53;;;;;;;0.28;0.10;;;14.40;80.80;;;;;;4123670;27;20099;-89
2020/12/20 12:25:19;;;;;;;0.40;0.05;;;14.20;81.00;;;;;;4130269;34;20493;-88
2020/12/20 12:27:46;;;;;;;1.00;0.03;;;14.20;81.40;;;;;;4107725;34;20083;-87
2020/12/20 12:30:18;;;;;;;0.00;0.00;;;14.10;81.50;;;;;;4111390;27;20039;-88
2020/12/20 12:32:55;;;;;;;0.00;0.00;;;14.10;81.60;;;;;;4094813;34;20082;-88
2020/12/20 12:35:36;;;;;;;0.00;0.00;;;14.10;81.70;;;;;;4106967;34;20125;-87
2020/12/20 12:38:15;;;;;;;0.00;0.00;;;14.10;81.50;;;;;;4118273;34;20078;-87
2020/12/20 12:40:51;;;;;;;7.72;0.20;;;14.10;82.20;;;;;;4123536;27;20074;-87
2020/12/20 12:43:42;;;;;;;0.00;0.00;;;14.20;81.10;;;;;;4117720;34;20102;-88
2020/12/20 12:46:12;;;;;;;0.00;0.00;;;14.30;80.90;;;;;;4126840;27;20078;-87
2020/12/20 12:48:48;;;;;;;1.95;0.15;;;14.30;80.90;;;;;;4112482;27;20083;-88
2020/12/20 12:52:00;;;;;;;0.00;0.00;;;14.30;80.90;;;;;;4103666;34;20067;-88
2020/12/20 12:54:28;;;;;;;0.00;0.00;;;14.30;80.80;;;;;;4107753;27;20122;-88
2020/12/20 12:57:50;;;;;;;0.00;0.00;;;14.30;81.00;;;;;;4038116;35;20051;-86
2020/12/20 13:00:32;;;;;;;0.00;0.00;;;14.40;81.00;;;;;;4070073;27;20108;-89
2020/12/20 13:06:33;;;;;;;0.00;0.00;;;14.50;80.50;;;;;;4101879;34;20062;-88
2020/12/20 13:15:00;;;;;;;0.00;0.00;;;14.30;80.70;;;;;;4105185;27;20043;-88
2020/12/20 13:17:27;;;;;;;0.03;0.03;;;14.30;81.10;;;;;;4109806;34;20054;-87
2020/12/20 13:19:54;;;;;;;0.80;0.20;;;14.30;81.00;;;;;;4102851;27;20102;-88
2020/12/20 13:22:37;;;;;;;2.22;0.10;;;14.30;81.00;;;;;;4104331;27;20298;-88
2020/12/20 13:25:11;;;;;;;0.00;0.00;;;14.40;80.80;;;;;;4110572;27;20070;-88
2020/12/20 13:27:50;;;;;;;0.00;0.00;;;14.50;80.70;;;;;;4094875;34;20113;-88
2020/12/20 13:30:37;;;;;;;0.22;0.10;;;14.60;80.50;;;;;;4136067;27;20074;-86
2020/12/20 13:34:00;;;;;;;0.00;0.00;;;14.60;80.30;;;;;;4138050;27;20075;-89
2020/12/20 13:36:50;;;;;;;0.13;0.05;;;14.60;80.30;;;;;;4108755;27;20082;-91
2020/12/20 14:00:41;;;;;;;0.10;0.00;;;14.20;81.60;;;;;;4128398;27;20082;-88
2020/12/20 14:03:49;;;;;;;0.30;0.10;;;14.00;81.90;;;;;;4113538;28;20090;-89
2020/12/20 14:06:37;;;;;;;0.00;0.00;;;13.90;82.10;;;;;;4142742;27;20058;-89
2020/12/20 14:09:44;;;;;;;0.00;0.00;;;13.80;82.30;;;;;;4170543;26;20082;-89
2020/12/20 14:13:28;;;;;;;0.32;0.20;;;13.80;82.50;;;;;;4153868;27;20371;-88
2020/12/20 14:16:29;;;;;;;0.32;0.10;;;13.70;82.40;;;;;;4103559;27;20055;-88
2020/12/20 14:19:41;;;;;;;0.00;0.00;;;13.70;82.30;;;;;;4133657;27;20067;-87
2020/12/20 14:25:53;;;;;;;0.38;0.32;;;13.60;82.60;;;;;;4105334;27;20081;-89
2020/12/20 14:28:31;;;;;;;0.00;0.00;;;13.50;82.70;;;;;;4134377;27;20079;-88
2020/12/20 14:33:53;;;;;;;0.08;0.00;;;13.50;82.80;;;;;;4087581;34;20117;-88
2020/12/20 14:36:36;;;;;;;0.10;0.10;;;13.50;82.70;;;;;;4095479;27;20055;-89
2020/12/20 14:39:10;;;;;;;0.13;0.03;;;13.60;82.50;;;;;;4111085;34;20087;-87
2020/12/20 14:47:55;;;;;;;0.00;0.00;;;13.50;82.50;;;;;;4133980;27;20329;-88
2020/12/20 14:50:29;;;;;;;0.00;0.00;;;13.50;82.70;;;;;;4115567;27;20123;-88
2020/12/20 14:53:20;;;;;;;2.03;0.03;;;13.40;82.80;;;;;;4152037;27;20113;-87
2020/12/20 14:56:16;;;;;;;0.00;0.00;;;13.30;82.90;;;;;;4117387;27;20085;-88
2020/12/20 14:58:51;;;;;;;0.10;0.05;;;13.30;83.00;;;;;;4125854;27;20203;-89
2020/12/20 15:01:25;;;;;;;0.08;0.00;;;13.30;83.20;;;;;;4135860;27;20059;-87
2020/12/20 15:03:57;;;;;;;0.32;0.08;;;13.20;83.20;;;;;;4106643;27;20051;-87
2020/12/20 15:06:25;;;;;;;0.63;0.10;;;13.20;83.30;;;;;;4123357;34;20085;-88
2020/12/20 15:08:52;;;;;;;2.20;0.32;;;13.10;83.30;;;;;;4131792;34;20081;-88
2020/12/20 15:11:23;;;;;;;0.80;0.10;;;13.10;83.40;;;;;;4145752;27;20031;-87
2020/12/20 15:16:45;;;;;;;0.38;0.10;;;13.10;83.60;;;;;;4132580;27;20062;-89
2020/12/20 15:19:27;;;;;;;3.50;0.45;;;13.10;83.70;;;;;;4108018;27;20068;-87
2020/12/20 15:22:03;;;;;;;0.20;0.00;;;13.00;83.60;;;;;;4085692;35;20087;-88
2020/12/20 15:24:36;;;;;;;0.00;0.00;;;13.10;83.60;;;;;;4093146;35;20051;-88
2020/12/20 15:27:13;;;;;;;0.00;0.00;;;13.10;83.40;;;;;;4119427;34;20039;-88
2020/12/20 15:36:05;;;;;;;0.00;0.00;;;13.00;83.50;;;;;;4136619;34;20382;-88
2020/12/20 15:38:46;;;;;;;0.03;0.00;;;13.00;83.80;;;;;;4140881;27;20081;-88
2020/12/20 15:41:29;;;;;;;1.27;0.25;;;12.90;83.80;;;;;;4134444;34;20070;-88
2020/12/20 15:43:56;;;;;;;0.00;0.00;;;12.80;83.90;;;;;;4163020;27;20085;-88
2020/12/20 15:46:25;;;;;;;0.00;0.00;;;12.70;84.10;;;;;;4104186;34;20115;-89
2020/12/20 15:48:51;;;;;;;0.00;0.00;;;12.70;84.40;;;;;;4129588;34;20083;-87
2020/12/20 15:51:25;;;;;;;0.00;0.00;;;12.60;84.60;;;;;;4129845;34;20525;-89
2020/12/20 15:54:15;;;;;;;0.10;0.00;;;12.50;84.80;;;;;;4106087;27;20086;-90
2020/12/20 15:57:02;;;;;;;0.13;0.10;;;12.40;85.00;;;;;;4088972;35;20419;-88
2020/12/20 15:59:30;;;;;;;26.92;1.52;;;12.30;85.10;;;;;;4112155;27;20161;-87
2020/12/20 16:01:58;;;;;;;0.00;0.00;;;12.30;85.20;;;;;;4117744;34;20071;-86
2020/12/20 16:05:28;;;;;;;0.00;0.00;;;12.30;85.40;;;;;;4116546;27;20078;-88
2020/12/20 16:08:57;;;;;;;0.10;0.10;;;12.20;85.30;;;;;;4126314;34;20089;-88
2020/12/20 16:15:24;;;;;;;0.10;0.10;;;12.20;85.50;;;;;;4128737;27;20058;-88
2020/12/20 16:30:50;;;;;;;0.00;0.00;;;11.80;86.10;;;;;;4142264;27;20071;-86
2020/12/20 16:33:16;;;;;;;9.45;0.55;;;11.70;86.10;;;;;;4112180;27;20091;-88
2020/12/20 16:36:00;;;;;;;0.30;0.20;;;11.70;86.20;;;;;;4116271;34;20078;-87
2020/12/20 16:38:26;;;;;;;1.40;0.38;;;11.60;86.20;;;;;;4120308;34;20063;-88
2020/12/20 16:41:18;;;;;;;0.77;0.28;;;11.60;86.30;;;;;;4157216;27;20398;-88
2020/12/20 16:43:47;;;;;;;0.00;0.00;;;11.60;86.40;;;;;;4138127;27;20066;-89
2020/12/20 16:46:44;;;;;;;0.00;0.00;;;11.50;86.40;;;;;;4117100;27;20082;-87
2020/12/20 16:49:36;;;;;;;0.20;0.20;;;11.50;86.40;;;;;;4130169;27;20071;-88
2020/12/20 16:52:06;;;;;;;0.15;0.10;;;11.50;86.40;;;;;;4127809;34;20078;-88
2020/12/20 16:55:02;;;;;;;3.53;0.43;;;11.50;86.30;;;;;;4144182;27;20083;-88
2020/12/20 16:57:28;;;;;;;2.90;0.95;;;11.50;86.30;;;;;;4128940;34;20078;-87
2020/12/20 17:00:27;;;;;;;10.25;0.55;;;11.40;86.20;;;;;;4111992;34;20118;-87
2020/12/20 17:02:51;;;;;;;0.10;0.10;;;11.50;86.30;;;;;;4149711;27;20078;-88
2020/12/20 17:05:18;;;;;;;1.65;0.10;;;11.40;86.30;;;;;;4128776;34;20058;-88
2020/12/20 17:07:45;;;;;;;0.10;0.10;;;11.30;86.30;;;;;;4111696;27;20067;-87
2020/12/20 17:10:26;;;;;;;0.22;0.08;;;11.40;86.40;;;;;;4105191;35;20039;-89
2020/12/20 17:12:52;;;;;;;1.55;0.10;;;11.40;86.40;;;;;;4137433;27;20371;-87
2020/12/20 17:15:19;;;;;;;0.17;0.10;;;11.30;86.30;;;;;;4139152;27;20035;-87
2020/12/20 17:18:04;;;;;;;0.55;0.00;;;11.30;86.20;;;;;;4142400;34;20051;-87
2020/12/20 17:20:36;;;;;;;0.13;0.00;;;11.30;86.20;;;;;;4140905;34;20081;-87
2020/12/20 17:23:05;;;;;;;0.47;0.08;;;11.40;86.20;;;;;;4134956;27;20073;-88